Fort Lauderdale Executive Airport Fort Lauderdale US
ICAO: KFXE
IATA: FXE
Category: Medium
Scheduled Services: No

Elevation: 13 ft
TransAlt. 18000 ft.

Airport Communications:
MIAMI APP/DEP:119.7
ATIS:119.85
CLNC DEL:127.95
EXECUTIVE GND:121.75
EXECUTIVE TWR:120.9
UNICOM:122.95

KFXE Zoom In..

Runways:

(A) RW 08 length 6002 ft width 100 ft
ILS 111.10 / hdg 87

(B) RW 13 length 4000 ft width 100 ft
---- / hdg 132

(C) RW 26 length 6002 ft width 100 ft
---- / hdg 267

(D) RW 31 length 4000 ft width 100 ft
---- / hdg 312

Location; KFXE
Day. 22 / Time. 23.53 Zulu
* Altimeter: 30.06
* Temperature: 23° c. 73.4°f.
* Wind from: 110° Speed 06 kn.
Dewpoint: 19° c.
Visibility: 10 Statute Miles.
Clouds: Scattered 2700 ft.

KFXE 222353Z 11006KT 10SM SCT027 23/19 A3006 RMK AO2 SLP182 T02280194 10261 20228 53009


Wind From 110°
Speed 06 kn.

YouTube Music Video
 
jpsmedia.com for Web Design  worldairports.se 2018   terms of use